sensor_id;sensor_type;location;lat;lon;timestamp;temperature;humidity
10662;DHT22;5379;51.034;7.006;2023-02-28T00:01:35;4.20;94.40
10662;DHT22;5379;51.034;7.006;2023-02-28T00:04:02;4.00;94.70
10662;DHT22;5379;51.034;7.006;2023-02-28T00:06:30;4.00;94.50
10662;DHT22;5379;51.034;7.006;2023-02-28T00:08:57;3.90;94.70
10662;DHT22;5379;51.034;7.006;2023-02-28T00:11:24;4.00;94.80
10662;DHT22;5379;51.034;7.006;2023-02-28T00:13:51;4.00;94.60
10662;DHT22;5379;51.034;7.006;2023-02-28T00:16:20;3.90;94.50
10662;DHT22;5379;51.034;7.006;2023-02-28T00:18:48;3.90;94.70
10662;DHT22;5379;51.034;7.006;2023-02-28T00:21:16;5.20;95.20
10662;DHT22;5379;51.034;7.006;2023-02-28T00:23:45;4.00;94.70
10662;DHT22;5379;51.034;7.006;2023-02-28T00:26:12;3.90;94.90
10662;DHT22;5379;51.034;7.006;2023-02-28T00:28:39;4.00;95.50
10662;DHT22;5379;51.034;7.006;2023-02-28T00:31:06;4.10;94.70
10662;DHT22;5379;51.034;7.006;2023-02-28T00:33:33;4.10;94.90
10662;DHT22;5379;51.034;7.006;2023-02-28T00:36:07;4.00;95.50
10662;DHT22;5379;51.034;7.006;2023-02-28T00:38:35;4.00;94.80
10662;DHT22;5379;51.034;7.006;2023-02-28T00:41:03;3.90;94.70
10662;DHT22;5379;51.034;7.006;2023-02-28T00:43:32;3.90;94.90
10662;DHT22;5379;51.034;7.006;2023-02-28T00:45:59;4.00;95.30
10662;DHT22;5379;51.034;7.006;2023-02-28T00:48:26;4.20;95.10
10662;DHT22;5379;51.034;7.006;2023-02-28T00:50:53;4.10;94.60
10662;DHT22;5379;51.034;7.006;2023-02-28T00:53:20;4.00;95.00
10662;DHT22;5379;51.034;7.006;2023-02-28T00:55:49;4.20;95.50
10662;DHT22;5379;51.034;7.006;2023-02-28T00:58:17;4.10;94.70
10662;DHT22;5379;51.034;7.006;2023-02-28T05:31:52;3.30;93.70
10662;DHT22;5379;51.034;7.006;2023-02-28T05:34:19;3.50;93.90
10662;DHT22;5379;51.034;7.006;2023-02-28T05:36:46;3.70;93.50
10662;DHT22;5379;51.034;7.006;2023-02-28T05:39:13;3.70;93.30
10662;DHT22;5379;51.034;7.006;2023-02-28T05:41:40;3.70;92.70
10662;DHT22;5379;51.034;7.006;2023-02-28T05:44:07;3.70;93.60
10662;DHT22;5379;51.034;7.006;2023-02-28T05:46:35;3.70;93.10
10662;DHT22;5379;51.034;7.006;2023-02-28T05:49:03;3.60;92.90
10662;DHT22;5379;51.034;7.006;2023-02-28T05:51:30;3.60;93.10
10662;DHT22;5379;51.034;7.006;2023-02-28T05:54:00;3.30;93.10
10662;DHT22;5379;51.034;7.006;2023-02-28T05:56:27;3.50;93.30
10662;DHT22;5379;51.034;7.006;2023-02-28T05:58:54;3.50;93.10
10662;DHT22;5379;51.034;7.006;2023-02-28T06:01:35;3.50;92.60
10662;DHT22;5379;51.034;7.006;2023-02-28T06:04:05;3.30;92.80
10662;DHT22;5379;51.034;7.006;2023-02-28T06:06:33;3.50;92.60
10662;DHT22;5379;51.034;7.006;2023-02-28T06:09:01;3.20;93.00
10662;DHT22;5379;51.034;7.006;2023-02-28T06:11:28;3.10;92.60
10662;DHT22;5379;51.034;7.006;2023-02-28T06:13:55;2.90;92.90
10662;DHT22;5379;51.034;7.006;2023-02-28T06:16:22;3.00;93.60
10662;DHT22;5379;51.034;7.006;2023-02-28T06:18:49;2.90;92.90
10662;DHT22;5379;51.034;7.006;2023-02-28T06:21:19;2.80;93.20
10662;DHT22;5379;51.034;7.006;2023-02-28T06:23:46;2.80;93.20
10662;DHT22;5379;51.034;7.006;2023-02-28T06:26:13;2.80;93.10
10662;DHT22;5379;51.034;7.006;2023-02-28T06:28:40;2.80;93.00
10662;DHT22;5379;51.034;7.006;2023-02-28T06:31:07;2.90;93.20
10662;DHT22;5379;51.034;7.006;2023-02-28T06:33:35;3.00;92.80
10662;DHT22;5379;51.034;7.006;2023-02-28T06:36:02;2.90;92.80
10662;DHT22;5379;51.034;7.006;2023-02-28T06:38:31;2.80;92.80
10662;DHT22;5379;51.034;7.006;2023-02-28T06:40:59;3.00;92.80
10662;DHT22;5379;51.034;7.006;2023-02-28T06:43:28;2.90;93.00
10662;DHT22;5379;51.034;7.006;2023-02-28T06:45:56;2.90;92.70
10662;DHT22;5379;51.034;7.006;2023-02-28T06:48:26;2.90;92.50
10662;DHT22;5379;51.034;7.006;2023-02-28T06:51:01;2.90;92.90
10662;DHT22;5379;51.034;7.006;2023-02-28T06:53:28;2.80;92.60
10662;DHT22;5379;51.034;7.006;2023-02-28T06:55:56;3.00;92.30
10662;DHT22;5379;51.034;7.006;2023-02-28T06:58:23;3.00;92.20
10662;DHT22;5379;51.034;7.006;2023-02-28T07:00:51;2.90;92.50
10662;DHT22;5379;51.034;7.006;2023-02-28T07:03:19;2.80;91.90
10662;DHT22;5379;51.034;7.006;2023-02-28T07:05:45;2.90;92.00
10662;DHT22;5379;51.034;7.006;2023-02-28T07:08:13;2.90;91.80
10662;DHT22;5379;51.034;7.006;2023-02-28T07:10:40;2.90;91.80
10662;DHT22;5379;51.034;7.006;2023-02-28T07:13:09;3.00;91.60
10662;DHT22;5379;51.034;7.006;2023-02-28T07:15:37;3.10;91.70
10662;DHT22;5379;51.034;7.006;2023-02-28T07:18:04;3.20;91.30
10662;DHT22;5379;51.034;7.006;2023-02-28T07:20:31;3.40;91.40
10662;DHT22;5379;51.034;7.006;2023-02-28T07:22:58;3.50;90.90
10662;DHT22;5379;51.034;7.006;2023-02-28T07:25:26;3.30;90.50
10662;DHT22;5379;51.034;7.006;2023-02-28T07:27:54;3.30;90.30
10662;DHT22;5379;51.034;7.006;2023-02-28T07:30:23;3.40;90.80
10662;DHT22;5379;51.034;7.006;2023-02-28T07:32:50;3.70;90.60
10662;DHT22;5379;51.034;7.006;2023-02-28T07:35:17;3.90;91.00
10662;DHT22;5379;51.034;7.006;2023-02-28T07:37:44;4.00;89.00
10662;DHT22;5379;51.034;7.006;2023-02-28T07:40:13;3.70;88.40
10662;DHT22;5379;51.034;7.006;2023-02-28T07:42:41;3.70;88.00
10662;DHT22;5379;51.034;7.006;2023-02-28T07:45:09;4.00;89.20
10662;DHT22;5379;51.034;7.006;2023-02-28T07:47:38;3.90;87.60
10662;DHT22;5379;51.034;7.006;2023-02-28T07:50:07;3.90;90.00
10662;DHT22;5379;51.034;7.006;2023-02-28T07:52:34;4.20;88.20
10662;DHT22;5379;51.034;7.006;2023-02-28T07:55:02;4.10;88.10
10662;DHT22;5379;51.034;7.006;2023-02-28T07:57:30;4.20;87.00
10662;DHT22;5379;51.034;7.006;2023-02-28T07:59:57;4.30;87.80
10662;DHT22;5379;51.034;7.006;2023-02-28T08:02:24;4.30;86.50
10662;DHT22;5379;51.034;7.006;2023-02-28T08:04:53;4.10;86.30
10662;DHT22;5379;51.034;7.006;2023-02-28T08:07:20;4.00;87.10
10662;DHT22;5379;51.034;7.006;2023-02-28T08:09:47;4.40;88.20
10662;DHT22;5379;51.034;7.006;2023-02-28T08:12:14;4.70;86.60
10662;DHT22;5379;51.034;7.006;2023-02-28T08:14:40;4.60;85.70
10662;DHT22;5379;51.034;7.006;2023-02-28T08:17:08;4.40;85.30
10662;DHT22;5379;51.034;7.006;2023-02-28T08:19:35;4.70;90.00
10662;DHT22;5379;51.034;7.006;2023-02-28T08:22:03;4.90;84.70
10662;DHT22;5379;51.034;7.006;2023-02-28T08:24:30;4.60;85.80
10662;DHT22;5379;51.034;7.006;2023-02-28T08:26:58;4.70;88.40
10662;DHT22;5379;51.034;7.006;2023-02-28T08:29:25;4.70;84.60
10662;DHT22;5379;51.034;7.006;2023-02-28T08:31:52;4.80;83.90
10662;DHT22;5379;51.034;7.006;2023-02-28T08:34:19;5.70;85.30
10662;DHT22;5379;51.034;7.006;2023-02-28T08:36:46;5.60;85.30
10662;DHT22;5379;51.034;7.006;2023-02-28T08:39:15;6.70;91.20
10662;DHT22;5379;51.034;7.006;2023-02-28T08:41:42;6.60;79.50
10662;DHT22;5379;51.034;7.006;2023-02-28T08:44:09;6.30;82.10
10662;DHT22;5379;51.034;7.006;2023-02-28T08:46:36;6.40;90.70
10662;DHT22;5379;51.034;7.006;2023-02-28T08:49:04;7.10;83.50
10662;DHT22;5379;51.034;7.006;2023-02-28T08:51:32;6.90;83.30
10662;DHT22;5379;51.034;7.006;2023-02-28T08:54:00;7.70;80.80
10662;DHT22;5379;51.034;7.006;2023-02-28T08:56:28;7.10;78.00
10662;DHT22;5379;51.034;7.006;2023-02-28T08:58:56;6.10;79.40
10662;DHT22;5379;51.034;7.006;2023-02-28T09:01:25;6.70;84.00
10662;DHT22;5379;51.034;7.006;2023-02-28T09:03:54;6.30;81.10
10662;DHT22;5379;51.034;7.006;2023-02-28T09:06:23;6.00;79.50
10662;DHT22;5379;51.034;7.006;2023-02-28T09:08:51;5.90;80.40
10662;DHT22;5379;51.034;7.006;2023-02-28T09:11:18;6.40;88.30
10662;DHT22;5379;51.034;7.006;2023-02-28T09:13:47;6.40;80.40
10662;DHT22;5379;51.034;7.006;2023-02-28T09:16:15;6.80;82.30
10662;DHT22;5379;51.034;7.006;2023-02-28T09:18:42;6.50;78.80
10662;DHT22;5379;51.034;7.006;2023-02-28T09:21:13;6.70;78.50
10662;DHT22;5379;51.034;7.006;2023-02-28T09:23:41;6.10;79.60
10662;DHT22;5379;51.034;7.006;2023-02-28T09:26:12;6.30;81.20
10662;DHT22;5379;51.034;7.006;2023-02-28T09:28:39;5.80;80.50
10662;DHT22;5379;51.034;7.006;2023-02-28T09:31:12;6.80;91.90
10662;DHT22;5379;51.034;7.006;2023-02-28T09:33:39;7.40;84.30
10662;DHT22;5379;51.034;7.006;2023-02-28T09:36:06;6.70;85.70
10662;DHT22;5379;51.034;7.006;2023-02-28T09:38:33;7.10;85.00
10662;DHT22;5379;51.034;7.006;2023-02-28T09:41:02;8.50;90.60
10662;DHT22;5379;51.034;7.006;2023-02-28T09:43:34;8.50;77.40
10662;DHT22;5379;51.034;7.006;2023-02-28T09:46:12;7.00;76.50
10662;DHT22;5379;51.034;7.006;2023-02-28T09:48:45;6.20;77.70
10662;DHT22;5379;51.034;7.006;2023-02-28T09:51:22;5.70;78.90
10662;DHT22;5379;51.034;7.006;2023-02-28T09:53:53;5.30;80.30
10662;DHT22;5379;51.034;7.006;2023-02-28T09:56:24;5.70;81.00
10662;DHT22;5379;51.034;7.006;2023-02-28T09:58:56;6.90;91.40
10662;DHT22;5379;51.034;7.006;2023-02-28T10:01:28;6.90;77.70
10662;DHT22;5379;51.034;7.006;2023-02-28T10:04:00;6.60;79.80
10662;DHT22;5379;51.034;7.006;2023-02-28T10:06:30;6.40;79.60
10662;DHT22;5379;51.034;7.006;2023-02-28T10:09:02;6.90;80.10
10662;DHT22;5379;51.034;7.006;2023-02-28T10:11:33;6.70;79.10
10662;DHT22;5379;51.034;7.006;2023-02-28T10:14:03;7.10;80.50
10662;DHT22;5379;51.034;7.006;2023-02-28T10:16:35;7.80;90.60
10662;DHT22;5379;51.034;7.006;2023-02-28T10:19:05;7.90;79.60
10662;DHT22;5379;51.034;7.006;2023-02-28T10:21:38;7.70;75.50
10662;DHT22;5379;51.034;7.006;2023-02-28T10:24:23;7.20;81.90
10662;DHT22;5379;51.034;7.006;2023-02-28T10:26:58;6.30;78.80
10662;DHT22;5379;51.034;7.006;2023-02-28T10:29:26;7.20;78.70
10662;DHT22;5379;51.034;7.006;2023-02-28T10:31:55;7.50;77.40
10662;DHT22;5379;51.034;7.006;2023-02-28T10:34:22;6.60;80.80
10662;DHT22;5379;51.034;7.006;2023-02-28T10:36:49;6.20;77.70
10662;DHT22;5379;51.034;7.006;2023-02-28T10:39:38;6.10;79.10
10662;DHT22;5379;51.034;7.006;2023-02-28T10:42:19;6.50;80.20
10662;DHT22;5379;51.034;7.006;2023-02-28T10:44:46;8.40;84.90
10662;DHT22;5379;51.034;7.006;2023-02-28T10:47:17;9.50;93.10
10662;DHT22;5379;51.034;7.006;2023-02-28T10:49:48;9.60;73.90
10662;DHT22;5379;51.034;7.006;2023-02-28T10:52:33;9.30;77.30
10662;DHT22;5379;51.034;7.006;2023-02-28T10:55:20;7.80;81.40
10662;DHT22;5379;51.034;7.006;2023-02-28T10:57:48;7.60;79.00
10662;DHT22;5379;51.034;7.006;2023-02-28T11:00:18;8.30;81.80
10662;DHT22;5379;51.034;7.006;2023-02-28T11:02:47;8.00;82.60
10662;DHT22;5379;51.034;7.006;2023-02-28T11:05:25;8.30;80.20
10662;DHT22;5379;51.034;7.006;2023-02-28T11:07:53;8.30;81.70
10662;DHT22;5379;51.034;7.006;2023-02-28T11:10:25;8.30;76.80
10662;DHT22;5379;51.034;7.006;2023-02-28T11:12:55;8.70;87.50
10662;DHT22;5379;51.034;7.006;2023-02-28T11:15:24;8.20;76.50
10662;DHT22;5379;51.034;7.006;2023-02-28T11:17:58;7.90;88.00
10662;DHT22;5379;51.034;7.006;2023-02-28T11:20:28;7.50;78.20
10662;DHT22;5379;51.034;7.006;2023-02-28T11:22:57;8.10;89.30
10662;DHT22;5379;51.034;7.006;2023-02-28T11:25:26;7.60;84.30
10662;DHT22;5379;51.034;7.006;2023-02-28T11:27:55;7.20;77.60
10662;DHT22;5379;51.034;7.006;2023-02-28T11:30:31;6.70;80.20
10662;DHT22;5379;51.034;7.006;2023-02-28T11:33:10;6.80;80.80
10662;DHT22;5379;51.034;7.006;2023-02-28T11:35:48;6.20;90.70
10662;DHT22;5379;51.034;7.006;2023-02-28T11:38:16;8.40;81.00
10662;DHT22;5379;51.034;7.006;2023-02-28T11:40:48;7.50;77.00
10662;DHT22;5379;51.034;7.006;2023-02-28T11:43:28;6.80;78.40
10662;DHT22;5379;51.034;7.006;2023-02-28T11:46:20;7.10;90.80
10662;DHT22;5379;51.034;7.006;2023-02-28T11:49:11;7.60;79.30
10662;DHT22;5379;51.034;7.006;2023-02-28T11:52:18;7.40;81.10
10662;DHT22;5379;51.034;7.006;2023-02-28T12:01:38;7.80;81.50
10662;DHT22;5379;51.034;7.006;2023-02-28T12:04:52;8.00;84.40
10662;DHT22;5379;51.034;7.006;2023-02-28T12:07:50;7.80;78.50
10662;DHT22;5379;51.034;7.006;2023-02-28T12:10:23;8.10;93.30
10662;DHT22;5379;51.034;7.006;2023-02-28T12:13:07;9.10;83.70
10662;DHT22;5379;51.034;7.006;2023-02-28T12:15:58;8.70;74.90
10662;DHT22;5379;51.034;7.006;2023-02-28T12:18:41;8.00;80.10
10662;DHT22;5379;51.034;7.006;2023-02-28T12:21:37;8.20;80.90
10662;DHT22;5379;51.034;7.006;2023-02-28T12:24:29;8.30;86.70
10662;DHT22;5379;51.034;7.006;2023-02-28T12:27:09;8.20;76.60
10662;DHT22;5379;51.034;7.006;2023-02-28T12:30:08;8.60;83.50
10662;DHT22;5379;51.034;7.006;2023-02-28T12:33:05;8.70;77.10
10662;DHT22;5379;51.034;7.006;2023-02-28T12:35:47;8.10;75.70
10662;DHT22;5379;51.034;7.006;2023-02-28T12:38:18;7.50;76.20
10662;DHT22;5379;51.034;7.006;2023-02-28T12:40:50;8.00;82.40
10662;DHT22;5379;51.034;7.006;2023-02-28T12:43:20;7.70;77.40
10662;DHT22;5379;51.034;7.006;2023-02-28T12:45:52;8.00;90.40
10662;DHT22;5379;51.034;7.006;2023-02-28T12:48:24;8.80;78.70
10662;DHT22;5379;51.034;7.006;2023-02-28T12:51:06;8.50;81.60
10662;DHT22;5379;51.034;7.006;2023-02-28T12:53:57;8.60;77.10
10662;DHT22;5379;51.034;7.006;2023-02-28T12:56:37;8.90;77.40
10662;DHT22;5379;51.034;7.006;2023-02-28T12:59:14;7.70;76.90
10662;DHT22;5379;51.034;7.006;2023-02-28T13:01:57;7.20;78.00
10662;DHT22;5379;51.034;7.006;2023-02-28T13:04:55;7.40;78.30
10662;DHT22;5379;51.034;7.006;2023-02-28T13:07:54;7.90;77.60
10662;DHT22;5379;51.034;7.006;2023-02-28T13:10:54;7.70;77.00
10662;DHT22;5379;51.034;7.006;2023-02-28T13:13:37;7.60;76.20
10662;DHT22;5379;51.034;7.006;2023-02-28T13:16:06;7.80;77.70
10662;DHT22;5379;51.034;7.006;2023-02-28T13:18:37;7.50;76.40
10662;DHT22;5379;51.034;7.006;2023-02-28T13:21:05;7.20;76.30
10662;DHT22;5379;51.034;7.006;2023-02-28T13:24:00;8.70;93.40
10662;DHT22;5379;51.034;7.006;2023-02-28T13:27:22;9.00;76.50
10662;DHT22;5379;51.034;7.006;2023-02-28T13:29:53;8.30;76.40
10662;DHT22;5379;51.034;7.006;2023-02-28T13:32:36;8.70;79.20
10662;DHT22;5379;51.034;7.006;2023-02-28T13:35:38;9.40;87.10
10662;DHT22;5379;51.034;7.006;2023-02-28T13:38:23;10.00;80.30
10662;DHT22;5379;51.034;7.006;2023-02-28T13:40:51;9.60;74.70
10662;DHT22;5379;51.034;7.006;2023-02-28T13:43:19;9.70;84.80
10662;DHT22;5379;51.034;7.006;2023-02-28T13:49:24;10.70;76.30
10662;DHT22;5379;51.034;7.006;2023-02-28T13:51:53;9.90;75.00
10662;DHT22;5379;51.034;7.006;2023-02-28T13:54:34;9.40;75.30
10662;DHT22;5379;51.034;7.006;2023-02-28T13:57:19;7.70;72.40
10662;DHT22;5379;51.034;7.006;2023-02-28T13:59:58;9.10;75.60
10662;DHT22;5379;51.034;7.006;2023-02-28T14:02:51;9.80;82.20
10662;DHT22;5379;51.034;7.006;2023-02-28T14:05:36;9.50;75.70
10662;DHT22;5379;51.034;7.006;2023-02-28T14:08:18;8.50;76.60
10662;DHT22;5379;51.034;7.006;2023-02-28T14:11:08;6.70;75.40
10662;DHT22;5379;51.034;7.006;2023-02-28T14:14:05;8.80;80.60
10662;DHT22;5379;51.034;7.006;2023-02-28T14:16:51;10.00;80.00
10662;DHT22;5379;51.034;7.006;2023-02-28T14:19:23;9.70;82.50
10662;DHT22;5379;51.034;7.006;2023-02-28T14:22:02;9.50;76.20
10662;DHT22;5379;51.034;7.006;2023-02-28T14:24:59;9.00;86.20
10662;DHT22;5379;51.034;7.006;2023-02-28T14:27:40;8.50;76.10
10662;DHT22;5379;51.034;7.006;2023-02-28T14:30:20;9.40;86.60
10662;DHT22;5379;51.034;7.006;2023-02-28T14:33:00;9.80;75.30
10662;DHT22;5379;51.034;7.006;2023-02-28T14:35:48;9.80;77.30
10662;DHT22;5379;51.034;7.006;2023-02-28T14:38:21;9.50;76.40
10662;DHT22;5379;51.034;7.006;2023-02-28T14:40:52;9.10;75.20
10662;DHT22;5379;51.034;7.006;2023-02-28T14:43:34;9.30;84.20
10662;DHT22;5379;51.034;7.006;2023-02-28T14:46:39;9.70;77.80
10662;DHT22;5379;51.034;7.006;2023-02-28T14:49:49;9.90;80.80
10662;DHT22;5379;51.034;7.006;2023-02-28T14:52:31;9.60;76.40
10662;DHT22;5379;51.034;7.006;2023-02-28T14:55:00;9.20;75.70
10662;DHT22;5379;51.034;7.006;2023-02-28T14:57:29;10.20;90.30
10662;DHT22;5379;51.034;7.006;2023-02-28T14:59:58;10.30;74.70
10662;DHT22;5379;51.034;7.006;2023-02-28T15:02:30;10.60;77.30
10662;DHT22;5379;51.034;7.006;2023-02-28T15:05:10;9.90;74.10
10662;DHT22;5379;51.034;7.006;2023-02-28T15:07:43;10.40;84.60
10662;DHT22;5379;51.034;7.006;2023-02-28T15:10:15;9.90;74.40
10662;DHT22;5379;51.034;7.006;2023-02-28T15:12:49;9.00;83.20
10662;DHT22;5379;51.034;7.006;2023-02-28T15:15:18;8.70;77.20
10662;DHT22;5379;51.034;7.006;2023-02-28T15:17:50;8.90;82.10
10662;DHT22;5379;51.034;7.006;2023-02-28T15:20:20;10.00;81.70
10662;DHT22;5379;51.034;7.006;2023-02-28T15:22:49;10.80;78.10
10662;DHT22;5379;51.034;7.006;2023-02-28T15:25:20;9.70;74.30
10662;DHT22;5379;51.034;7.006;2023-02-28T15:27:50;8.80;74.60
10662;DHT22;5379;51.034;7.006;2023-02-28T15:30:26;9.10;76.40
10662;DHT22;5379;51.034;7.006;2023-02-28T15:33:06;9.00;76.50
10662;DHT22;5379;51.034;7.006;2023-02-28T15:35:35;9.10;75.80
10662;DHT22;5379;51.034;7.006;2023-02-28T15:38:04;8.90;75.90
10662;DHT22;5379;51.034;7.006;2023-02-28T15:40:42;9.70;88.00
10662;DHT22;5379;51.034;7.006;2023-02-28T15:43:14;9.50;77.00
10662;DHT22;5379;51.034;7.006;2023-02-28T15:45:47;9.60;77.00
10662;DHT22;5379;51.034;7.006;2023-02-28T15:48:18;9.90;78.30
10662;DHT22;5379;51.034;7.006;2023-02-28T15:50:50;10.00;79.90
10662;DHT22;5379;51.034;7.006;2023-02-28T15:53:21;10.30;79.60
10662;DHT22;5379;51.034;7.006;2023-02-28T15:55:54;10.20;77.50
10662;DHT22;5379;51.034;7.006;2023-02-28T15:58:22;9.50;74.60
10662;DHT22;5379;51.034;7.006;2023-02-28T16:01:03;9.20;75.80
10662;DHT22;5379;51.034;7.006;2023-02-28T16:03:39;9.30;76.30
10662;DHT22;5379;51.034;7.006;2023-02-28T16:06:38;9.30;75.20
10662;DHT22;5379;51.034;7.006;2023-02-28T16:09:10;9.20;75.50
10662;DHT22;5379;51.034;7.006;2023-02-28T16:11:41;9.00;76.20
10662;DHT22;5379;51.034;7.006;2023-02-28T16:14:19;8.70;75.70
10662;DHT22;5379;51.034;7.006;2023-02-28T16:16:53;8.60;76.60
10662;DHT22;5379;51.034;7.006;2023-02-28T16:19:20;8.60;76.80
10662;DHT22;5379;51.034;7.006;2023-02-28T16:21:49;8.40;76.70
10662;DHT22;5379;51.034;7.006;2023-02-28T16:24:16;8.10;77.70
10662;DHT22;5379;51.034;7.006;2023-02-28T16:26:46;8.10;77.30
10662;DHT22;5379;51.034;7.006;2023-02-28T16:29:17;8.00;77.50
10662;DHT22;5379;51.034;7.006;2023-02-28T16:31:45;7.90;77.60
10662;DHT22;5379;51.034;7.006;2023-02-28T16:34:12;8.00;77.90
10662;DHT22;5379;51.034;7.006;2023-02-28T16:36:39;8.70;82.10
10662;DHT22;5379;51.034;7.006;2023-02-28T16:39:08;8.70;77.60
10662;DHT22;5379;51.034;7.006;2023-02-28T16:41:35;8.40;77.40
10662;DHT22;5379;51.034;7.006;2023-02-28T16:44:02;8.60;78.80
10662;DHT22;5379;51.034;7.006;2023-02-28T16:46:36;8.70;77.80
10662;DHT22;5379;51.034;7.006;2023-02-28T16:49:03;8.90;77.40
10662;DHT22;5379;51.034;7.006;2023-02-28T16:51:30;9.10;79.00
10662;DHT22;5379;51.034;7.006;2023-02-28T16:53:57;9.10;77.80
10662;DHT22;5379;51.034;7.006;2023-02-28T16:56:25;8.80;77.30
10662;DHT22;5379;51.034;7.006;2023-02-28T16:59:00;8.40;77.80
10662;DHT22;5379;51.034;7.006;2023-02-28T17:01:50;8.40;80.00
10662;DHT22;5379;51.034;7.006;2023-02-28T17:04:20;8.50;79.10
10662;DHT22;5379;51.034;7.006;2023-02-28T17:06:47;8.60;80.00
10662;DHT22;5379;51.034;7.006;2023-02-28T17:09:16;8.60;79.00
10662;DHT22;5379;51.034;7.006;2023-02-28T17:11:45;8.40;79.20
10662;DHT22;5379;51.034;7.006;2023-02-28T17:14:12;8.30;79.60
10662;DHT22;5379;51.034;7.006;2023-02-28T17:16:39;8.30;79.70
10662;DHT22;5379;51.034;7.006;2023-02-28T17:19:11;8.10;79.70
10662;DHT22;5379;51.034;7.006;2023-02-28T17:21:39;7.80;83.10
10662;DHT22;5379;51.034;7.006;2023-02-28T17:24:09;7.80;84.60
10662;DHT22;5379;51.034;7.006;2023-02-28T17:26:38;7.60;85.60
10662;DHT22;5379;51.034;7.006;2023-02-28T17:29:25;7.50;85.90
10662;DHT22;5379;51.034;7.006;2023-02-28T17:31:54;7.60;86.40
10662;DHT22;5379;51.034;7.006;2023-02-28T17:34:22;7.50;87.00
10662;DHT22;5379;51.034;7.006;2023-02-28T17:36:50;7.50;87.30
10662;DHT22;5379;51.034;7.006;2023-02-28T17:39:21;7.50;87.70
10662;DHT22;5379;51.034;7.006;2023-02-28T17:41:50;7.50;87.40
10662;DHT22;5379;51.034;7.006;2023-02-28T17:44:17;7.40;88.30
10662;DHT22;5379;51.034;7.006;2023-02-28T17:46:46;7.40;88.10
10662;DHT22;5379;51.034;7.006;2023-02-28T17:49:13;7.30;87.80
10662;DHT22;5379;51.034;7.006;2023-02-28T17:51:40;7.30;88.60
10662;DHT22;5379;51.034;7.006;2023-02-28T17:54:07;7.20;88.70
10662;DHT22;5379;51.034;7.006;2023-02-28T17:56:40;7.30;88.70
10662;DHT22;5379;51.034;7.006;2023-02-28T17:59:12;7.20;88.70
10662;DHT22;5379;51.034;7.006;2023-02-28T18:01:40;7.40;89.20
10662;DHT22;5379;51.034;7.006;2023-02-28T18:04:08;7.20;88.80
10662;DHT22;5379;51.034;7.006;2023-02-28T18:06:37;7.00;89.20
10662;DHT22;5379;51.034;7.006;2023-02-28T18:09:16;7.00;89.40
10662;DHT22;5379;51.034;7.006;2023-02-28T18:11:43;7.10;89.60
10662;DHT22;5379;51.034;7.006;2023-02-28T18:14:14;7.10;90.00
10662;DHT22;5379;51.034;7.006;2023-02-28T18:16:41;7.10;90.00
10662;DHT22;5379;51.034;7.006;2023-02-28T18:19:10;7.10;89.50
10662;DHT22;5379;51.034;7.006;2023-02-28T18:21:40;7.00;90.00
10662;DHT22;5379;51.034;7.006;2023-02-28T18:24:07;7.00;90.20
10662;DHT22;5379;51.034;7.006;2023-02-28T18:26:36;7.00;90.20
10662;DHT22;5379;51.034;7.006;2023-02-28T18:29:04;7.00;90.00
10662;DHT22;5379;51.034;7.006;2023-02-28T18:31:31;7.10;90.40
10662;DHT22;5379;51.034;7.006;2023-02-28T18:33:59;7.00;90.00
10662;DHT22;5379;51.034;7.006;2023-02-28T18:36:27;6.90;90.00
10662;DHT22;5379;51.034;7.006;2023-02-28T18:38:54;6.90;90.40
10662;DHT22;5379;51.034;7.006;2023-02-28T18:41:21;6.80;90.30
10662;DHT22;5379;51.034;7.006;2023-02-28T18:43:49;6.70;90.40
10662;DHT22;5379;51.034;7.006;2023-02-28T18:46:17;6.70;90.60
10662;DHT22;5379;51.034;7.006;2023-02-28T18:48:45;6.70;90.60
10662;DHT22;5379;51.034;7.006;2023-02-28T18:51:13;6.70;90.50
10662;DHT22;5379;51.034;7.006;2023-02-28T18:53:43;6.60;90.60
10662;DHT22;5379;51.034;7.006;2023-02-28T18:56:11;6.60;90.80
10662;DHT22;5379;51.034;7.006;2023-02-28T18:58:39;6.50;90.80
10662;DHT22;5379;51.034;7.006;2023-02-28T19:01:14;6.60;90.90
10662;DHT22;5379;51.034;7.006;2023-02-28T19:03:41;6.60;91.10
10662;DHT22;5379;51.034;7.006;2023-02-28T19:06:09;6.70;91.10
10662;DHT22;5379;51.034;7.006;2023-02-28T19:08:36;6.60;91.00
10662;DHT22;5379;51.034;7.006;2023-02-28T19:11:07;6.50;91.40
10662;DHT22;5379;51.034;7.006;2023-02-28T19:13:35;6.60;91.30
10662;DHT22;5379;51.034;7.006;2023-02-28T19:16:02;6.60;91.30
10662;DHT22;5379;51.034;7.006;2023-02-28T19:18:30;6.50;91.10
10662;DHT22;5379;51.034;7.006;2023-02-28T19:20:57;6.60;91.20
10662;DHT22;5379;51.034;7.006;2023-02-28T19:23:25;6.50;91.20
10662;DHT22;5379;51.034;7.006;2023-02-28T19:29:35;6.50;91.40
10662;DHT22;5379;51.034;7.006;2023-02-28T19:32:21;6.40;91.60
10662;DHT22;5379;51.034;7.006;2023-02-28T19:42:02;6.40;92.00
10662;DHT22;5379;51.034;7.006;2023-02-28T19:44:30;6.40;91.70
10662;DHT22;5379;51.034;7.006;2023-02-28T19:46:58;6.50;91.60
10662;DHT22;5379;51.034;7.006;2023-02-28T19:49:25;6.30;91.60
10662;DHT22;5379;51.034;7.006;2023-02-28T19:51:52;6.10;91.80
10662;DHT22;5379;51.034;7.006;2023-02-28T19:54:19;5.90;91.80
10662;DHT22;5379;51.034;7.006;2023-02-28T19:56:45;6.00;92.00
10662;DHT22;5379;51.034;7.006;2023-02-28T19:59:12;5.90;91.80
10662;DHT22;5379;51.034;7.006;2023-02-28T20:01:39;6.00;92.00
10662;DHT22;5379;51.034;7.006;2023-02-28T20:04:09;6.00;91.90
10662;DHT22;5379;51.034;7.006;2023-02-28T20:06:36;6.00;91.80
10662;DHT22;5379;51.034;7.006;2023-02-28T20:09:03;6.00;91.60
10662;DHT22;5379;51.034;7.006;2023-02-28T20:11:30;6.00;92.00
10662;DHT22;5379;51.034;7.006;2023-02-28T20:13:57;5.80;91.90
10662;DHT22;5379;51.034;7.006;2023-02-28T20:16:25;5.80;92.00
10662;DHT22;5379;51.034;7.006;2023-02-28T20:18:53;5.80;92.00
10662;DHT22;5379;51.034;7.006;2023-02-28T20:21:22;5.70;92.00
10662;DHT22;5379;51.034;7.006;2023-02-28T20:23:49;5.70;92.10
10662;DHT22;5379;51.034;7.006;2023-02-28T20:26:16;5.70;92.20
10662;DHT22;5379;51.034;7.006;2023-02-28T20:28:45;5.70;92.50
10662;DHT22;5379;51.034;7.006;2023-02-28T20:31:13;5.80;92.30
10662;DHT22;5379;51.034;7.006;2023-02-28T20:33:40;5.70;92.00
10662;DHT22;5379;51.034;7.006;2023-02-28T20:36:08;5.70;92.70
10662;DHT22;5379;51.034;7.006;2023-02-28T20:38:38;5.60;92.60
10662;DHT22;5379;51.034;7.006;2023-02-28T20:41:06;5.50;92.30
10662;DHT22;5379;51.034;7.006;2023-02-28T20:43:33;5.40;92.30
10662;DHT22;5379;51.034;7.006;2023-02-28T20:46:00;5.30;92.50
10662;DHT22;5379;51.034;7.006;2023-02-28T20:48:28;5.30;92.40
10662;DHT22;5379;51.034;7.006;2023-02-28T20:50:57;5.30;92.70
10662;DHT22;5379;51.034;7.006;2023-02-28T20:53:26;5.30;92.70
10662;DHT22;5379;51.034;7.006;2023-02-28T20:55:55;5.30;92.60
10662;DHT22;5379;51.034;7.006;2023-02-28T20:58:24;5.20;92.60
10662;DHT22;5379;51.034;7.006;2023-02-28T21:00:58;5.20;92.80
10662;DHT22;5379;51.034;7.006;2023-02-28T21:03:25;5.20;93.30
10662;DHT22;5379;51.034;7.006;2023-02-28T21:05:58;5.30;92.80
10662;DHT22;5379;51.034;7.006;2023-02-28T21:08:26;5.30;92.60
10662;DHT22;5379;51.034;7.006;2023-02-28T21:10:54;5.30;92.90
10662;DHT22;5379;51.034;7.006;2023-02-28T21:13:21;5.20;92.70
10662;DHT22;5379;51.034;7.006;2023-02-28T21:15:48;5.20;92.90
10662;DHT22;5379;51.034;7.006;2023-02-28T21:18:15;5.40;93.00
10662;DHT22;5379;51.034;7.006;2023-02-28T21:20:42;5.40;92.80
10662;DHT22;5379;51.034;7.006;2023-02-28T21:23:09;5.70;92.50
10662;DHT22;5379;51.034;7.006;2023-02-28T21:25:36;5.60;92.30